• Join FlightAware (Why Join?)
  • Login
  • US Flag 
03:22PM EST


 

Airport Tracker/Info


-or-


 

Live Flight TrackerFlight Track Log ✈ N779NC ✈ 26-Jun-2013 ✈ KATL - KSDF

Flight Track Log - Related Links

Times and Time Zones

All times are in EDT time to prevent confusion due to time zone crossing. See the N779NC flight status page for this flight to view local times or setup timezone preferences in your user account.

Time Position Orientation Groundspeed Altitude Reporting Facility
EDT Latitude Longitude Course Direction KTS MPH feet Rate Location/Type
12:31PM 33.6536 -84.4806 348° North 441 507 2,500  Level Atlanta Center
12:32PM 33.7000 -84.5667 303° West 261 300 5,300 2,301 Climbing Atlanta TRACON
12:33PM 33.7667 -84.5833 348° North 276 318 7,600 1,940 Climbing Atlanta TRACON
12:34PM 34.0460 -84.5245 349° North  Level FlightAware Approximate
12:35PM 34.1428 -84.5503 347° North  Level FlightAware Approximate
12:35PM 33.9161 -84.5844 360° North 300 345 10,700  Level Atlanta Center
12:36PM 34.2445 -84.5781 348° North  Level FlightAware Approximate
12:36PM 34.0122 -84.5775 North 321 369 11,600  Level Atlanta Center
12:37PM 34.3465 -84.6045 348° North  Level FlightAware Approximate
12:37PM 34.1122 -84.5908 354° North 348 400 13,600  Level Atlanta Center
12:38PM 34.2103 -84.6167 348° North 354 407 15,100 1,550 Climbing Atlanta Center
12:39PM 34.3019 -84.6422 347° North 359 413 16,700 1,350 Climbing Atlanta Center
12:40PM 34.4042 -84.6758 345° North 365 420 17,800 1,300 Climbing Atlanta Center
12:41PM 34.5106 -84.7017 349° North 379 436 19,300 1,500 Climbing Atlanta Center
12:42PM 34.6208 -84.7356 346° North 391 450 20,800 1,450 Climbing Atlanta Center
12:43PM 34.7417 -84.7642 349° North 396 456 22,200 1,300 Climbing Atlanta Center
12:44PM 34.8542 -84.7981 346° North 402 463 23,400 1,250 Climbing Atlanta Center
12:45PM 34.9667 -84.8269 348° North 407 468 24,700 800 Climbing Atlanta Center
12:46PM 35.0772 -84.8561 348° North 412 474 25,000 500 Climbing Atlanta Center
12:47PM 35.1642 -84.9586 316° Northwest 412 474 25,700 550 Climbing Atlanta Center
12:48PM 35.2572 -85.0561 319° Northwest 424 488 26,100 600 Climbing Atlanta Center
12:49PM 35.3589 -85.1236 332° Northwest 421 484 26,900 450 Climbing Atlanta Center
12:50PM 35.4819 -85.1228 360° North 418 481 27,000 550 Climbing Atlanta Center
12:51PM 35.6050 -85.1422 353° North 430 495 28,000 359 Climbing Atlanta Center
12:53PM 35.8064 -85.1753 352° North 451 519 28,000  Level Indianapolis Center
12:54PM 35.9372 -85.1689 North 459 528 28,000  Level Indianapolis Center
12:55PM 36.0664 -85.1561 North 459 528 28,000  Level Indianapolis Center
12:56PM 36.2178 -85.1333 North 454 522 28,000  Level Indianapolis Center
12:57PM 36.3425 -85.0942 14° North 459 528 28,000  Level Indianapolis Center
12:58PM 36.4678 -85.0611 12° North 459 528 28,000 -488 Level Indianapolis Center
12:59PM 36.5928 -85.0264 13° North 460 529 27,000 -1,268 Descending Indianapolis Center
01:00PM 36.7142 -84.9878 14° North 451 519 25,400 -1,707 Descending Indianapolis Center
01:01PM 36.8322 -84.9583 11° North 437 503 23,500 -1,659 Descending Indianapolis Center
01:02PM 36.9486 -84.9272 12° North 429 494 22,000 -1,645 Descending Indianapolis Center
01:03PM 37.0681 -84.8842 16° North 423 487 20,100 -1,887 Descending Indianapolis Center
01:04PM 37.1778 -84.8556 12° North 407 468 18,100 -1,902 Descending Indianapolis Center
01:05PM 37.2844 -84.8194 15° North 398 458 16,200 -1,659 Descending Indianapolis Center
01:06PM 37.4078 -84.8133 North 384 442 14,700 -1,366 Descending Indianapolis Center
01:07PM 37.5086 -84.8294 353° North 369 425 13,400 -1,415 Descending Indianapolis Center
01:08PM 37.6106 -84.8408 355° North 364 419 11,800 -1,161 Descending Indianapolis Center
01:09PM 37.6817 -84.9256 317° Northwest 349 402 11,000 -390 Descending Indianapolis Center
01:10PM 37.7433 -85.0203 309° West 350 403 11,000 -244 Level Indianapolis Center
01:11PM 37.8008 -85.1225 305° West 358 412 10,500 -488 Descending Indianapolis Center
01:12PM 37.8681 -85.2178 312° West 364 419 10,000 -244 Descending Indianapolis Center
01:14PM 37.9378 -85.3042 316° Northwest 352 405 10,000 -341 Level Indianapolis Center
01:15PM 37.9883 -85.3753 312° West 278 320 9,300 -1,317 Descending Indianapolis Center
01:16PM 38.0408 -85.4631 307° West 261 300 7,300 -1,500 Descending Indianapolis Center
01:17PM 38.0825 -85.5394 305° West 263 303 6,200 -634 Descending Indianapolis Center
01:18PM 38.1383 -85.5994 320° Northwest 286 329 6,000 -49 Descending Indianapolis Center
01:19PM 38.2022 -85.6228 344° North 245 282 6,100 -341 Climbing Indianapolis Center
01:20PM 38.2667 -85.6492 342° North 241 277 5,300 -1,024 Descending Indianapolis Center
01:21PM 38.3286 -85.6767 341° North 238 274 4,000 -1,065 Descending Indianapolis Center
01:22PM 38.3889 -85.7047 340° North 235 270 3,100 -439 Descending Indianapolis Center
01:23PM 38.4119 -85.7633 297° West 217 250 3,100  Level Indianapolis Center
01:24PM 38.3786 -85.8000 221° Southwest 203 234 3,100  Level Indianapolis Center